createdAt,value
2017-12-03T00:00:10.716Z,11.10
2017-12-03T00:02:39.008Z,12.80
2017-12-03T00:05:07.289Z,12.60
2017-12-03T00:07:35.972Z,12.00
2017-12-03T00:10:04.273Z,13.13
2017-12-03T00:12:32.557Z,11.90
2017-12-03T00:15:00.862Z,12.53
2017-12-03T00:17:29.110Z,11.47
2017-12-03T00:19:57.399Z,10.55
2017-12-03T00:22:26.465Z,10.77
2017-12-03T00:24:54.744Z,8.30
2017-12-03T00:27:23.036Z,10.00
2017-12-03T00:29:51.329Z,10.30
2017-12-03T00:32:19.612Z,9.60
2017-12-03T00:34:47.920Z,10.97
2017-12-03T00:37:16.212Z,9.80
2017-12-03T00:39:44.521Z,10.40
2017-12-03T00:42:12.828Z,11.57
2017-12-03T00:44:41.233Z,11.85
2017-12-03T00:47:09.642Z,9.87
2017-12-03T00:49:38.167Z,9.63
2017-12-03T00:52:06.879Z,9.43
2017-12-03T00:54:35.192Z,9.90
2017-12-03T00:57:03.656Z,8.90
2017-12-03T00:59:32.182Z,10.23
2017-12-03T01:02:00.629Z,10.07
2017-12-03T01:04:28.984Z,8.77
2017-12-03T01:06:57.308Z,8.50
2017-12-03T01:09:26.366Z,7.37
2017-12-03T01:11:54.707Z,6.73
2017-12-03T01:14:22.999Z,6.63
2017-12-03T01:16:51.277Z,6.85
2017-12-03T01:19:19.592Z,6.57
2017-12-03T01:21:48.877Z,5.93
2017-12-03T01:24:17.181Z,6.00
2017-12-03T01:26:45.496Z,7.57
2017-12-03T01:29:13.789Z,6.20
2017-12-03T01:31:42.082Z,6.50
2017-12-03T01:34:10.374Z,7.07
2017-12-03T01:36:38.657Z,6.03
2017-12-03T01:39:07.709Z,5.83
2017-12-03T01:41:35.986Z,5.07
2017-12-03T01:44:04.265Z,4.33
2017-12-03T01:46:32.548Z,5.00
2017-12-03T01:49:00.825Z,5.10
2017-12-03T01:51:29.114Z,4.80
2017-12-03T01:53:57.408Z,5.47
2017-12-03T01:56:25.689Z,4.83
2017-12-03T01:58:54.760Z,5.62
2017-12-03T02:01:23.044Z,5.22
2017-12-03T02:03:51.337Z,6.00
2017-12-03T02:06:20.464Z,5.70
2017-12-03T02:08:49.909Z,5.12
2017-12-03T02:11:18.197Z,5.05
2017-12-03T02:13:46.485Z,5.83
2017-12-03T02:16:15.547Z,4.97
2017-12-03T02:18:43.849Z,5.95
2017-12-03T02:21:12.136Z,5.47
2017-12-03T02:23:40.438Z,4.87
2017-12-03T02:26:08.720Z,5.50
2017-12-03T02:28:36.997Z,5.33
2017-12-03T02:31:05.277Z,4.25
2017-12-03T02:33:33.561Z,5.13
2017-12-03T02:36:01.846Z,4.97
2017-12-03T02:38:30.120Z,4.70
2017-12-03T02:40:58.401Z,5.20
2017-12-03T02:43:26.680Z,3.93
2017-12-03T02:45:54.952Z,4.33
2017-12-03T02:48:23.236Z,4.67
2017-12-03T02:50:51.510Z,4.97
2017-12-03T02:53:19.788Z,4.10
2017-12-03T02:55:48.068Z,4.70
2017-12-03T02:58:16.352Z,5.00
2017-12-03T03:00:44.628Z,4.80
2017-12-03T03:03:12.905Z,5.90
2017-12-03T03:05:41.200Z,5.80
2017-12-03T03:08:10.248Z,5.53
2017-12-03T03:10:38.532Z,6.83
2017-12-03T03:13:06.830Z,5.77
2017-12-03T03:15:35.104Z,6.37
2017-12-03T03:18:04.132Z,6.03
2017-12-03T03:20:32.408Z,6.30
2017-12-03T03:23:01.470Z,5.47
2017-12-03T03:25:29.747Z,6.10
2017-12-03T03:27:58.036Z,6.87
2017-12-03T03:30:26.325Z,6.93
2017-12-03T03:32:54.623Z,6.43
2017-12-03T03:35:22.900Z,5.47
2017-12-03T03:37:51.190Z,5.73
2017-12-03T03:40:19.468Z,6.73
2017-12-03T03:42:47.749Z,6.90
2017-12-03T03:45:16.036Z,7.33
2017-12-03T03:47:44.332Z,6.70
2017-12-03T03:50:12.608Z,7.10
2017-12-03T03:52:40.896Z,8.23
2017-12-03T03:55:09.180Z,7.50
2017-12-03T03:57:37.460Z,6.50
2017-12-03T04:00:06.504Z,6.80
2017-12-03T04:02:34.788Z,6.70
2017-12-03T04:05:03.059Z,6.90
2017-12-03T04:07:31.340Z,5.37
2017-12-03T04:09:59.623Z,5.70
2017-12-03T04:12:27.905Z,6.23
2017-12-03T04:14:56.196Z,6.05
2017-12-03T04:17:24.474Z,6.80
2017-12-03T04:19:52.761Z,7.10
2017-12-03T04:22:21.037Z,5.53
2017-12-03T04:24:50.612Z,5.85
2017-12-03T04:27:18.894Z,7.83
2017-12-03T04:29:47.179Z,7.60
2017-12-03T04:32:15.453Z,7.40
2017-12-03T04:34:43.742Z,7.40
2017-12-03T04:37:12.038Z,6.93
2017-12-03T04:39:40.312Z,7.27
2017-12-03T04:42:08.597Z,8.70
2017-12-03T04:44:36.887Z,8.90
2017-12-03T04:47:05.170Z,7.57
2017-12-03T04:49:33.456Z,6.93
2017-12-03T04:52:01.750Z,6.97
2017-12-03T04:54:30.031Z,9.37
2017-12-03T04:56:58.320Z,7.05
2017-12-03T04:59:26.604Z,9.60
2017-12-03T05:01:54.889Z,9.73
2017-12-03T05:04:23.193Z,8.60
2017-12-03T05:06:51.478Z,9.23
2017-12-03T05:09:19.760Z,9.87
2017-12-03T05:11:48.050Z,9.27
2017-12-03T05:14:16.329Z,8.63
2017-12-03T05:16:44.614Z,9.13
2017-12-03T05:19:12.891Z,7.30
2017-12-03T05:21:41.171Z,7.82
2017-12-03T05:24:09.453Z,6.90
2017-12-03T05:26:40.726Z,7.33
2017-12-03T05:29:10.284Z,7.60
2017-12-03T05:31:38.580Z,6.00
2017-12-03T05:34:06.856Z,7.20
2017-12-03T05:36:35.153Z,7.40
2017-12-03T05:39:03.436Z,7.03
2017-12-03T05:41:32.484Z,6.87
2017-12-03T05:44:00.758Z,8.20
2017-12-03T05:46:29.037Z,6.80
2017-12-03T05:48:57.322Z,6.90
2017-12-03T05:51:25.604Z,6.87
2017-12-03T05:53:53.882Z,7.30
2017-12-03T05:56:22.177Z,6.57
2017-12-03T05:58:50.460Z,7.50
2017-12-03T06:01:19.504Z,6.23
2017-12-03T06:03:47.784Z,7.87
2017-12-03T06:06:16.064Z,6.30
2017-12-03T06:08:44.349Z,6.73
2017-12-03T06:11:12.626Z,6.97
2017-12-03T06:13:40.926Z,6.40
2017-12-03T06:16:09.668Z,6.97
2017-12-03T06:18:37.952Z,6.93
2017-12-03T06:21:06.232Z,7.23
2017-12-03T06:23:34.516Z,9.00
2017-12-03T06:26:02.809Z,7.80
2017-12-03T06:28:31.146Z,7.80
2017-12-03T06:30:59.425Z,7.83
2017-12-03T06:33:27.696Z,8.80
2017-12-03T06:35:55.980Z,8.20
2017-12-03T06:38:24.252Z,7.30
2017-12-03T06:40:52.529Z,8.30
2017-12-03T06:43:20.813Z,8.60
2017-12-03T06:45:49.865Z,9.27
2017-12-03T06:48:18.150Z,9.00
2017-12-03T06:50:46.434Z,9.23
2017-12-03T06:53:14.724Z,9.23
2017-12-03T06:55:43.000Z,8.70
2017-12-03T06:58:11.284Z,10.60
2017-12-03T07:00:39.577Z,9.57
2017-12-03T07:03:07.876Z,9.53
2017-12-03T07:05:36.169Z,10.03
2017-12-03T07:08:04.472Z,9.30
2017-12-03T07:10:32.753Z,9.80
2017-12-03T07:13:01.065Z,9.60
2017-12-03T07:15:29.371Z,9.10
2017-12-03T07:17:57.657Z,9.63
2017-12-03T07:20:26.716Z,9.93
2017-12-03T07:22:56.084Z,8.97
2017-12-03T07:25:24.361Z,9.60
2017-12-03T07:27:52.649Z,9.63
2017-12-03T07:30:20.932Z,9.67
2017-12-03T07:32:49.220Z,9.05
2017-12-03T07:35:18.253Z,9.10
2017-12-03T07:37:46.548Z,9.70
2017-12-03T07:40:14.840Z,8.77
2017-12-03T07:42:43.126Z,8.50
2017-12-03T07:45:11.412Z,8.77
2017-12-03T07:47:39.704Z,8.67
2017-12-03T07:50:07.993Z,7.73
2017-12-03T07:52:36.277Z,8.30
2017-12-03T07:55:04.572Z,10.20
2017-12-03T07:57:32.863Z,8.90
2017-12-03T08:00:01.150Z,8.30
2017-12-03T08:02:29.439Z,8.57
2017-12-03T08:04:57.722Z,7.30
2017-12-03T08:07:26.009Z,7.77
2017-12-03T08:09:54.296Z,9.10
2017-12-03T08:12:22.589Z,8.33
2017-12-03T08:14:51.644Z,9.13
2017-12-03T08:17:19.947Z,9.00
2017-12-03T08:19:48.251Z,8.20
2017-12-03T08:22:16.528Z,8.47
2017-12-03T08:24:44.845Z,7.80
2017-12-03T08:27:13.141Z,8.07
2017-12-03T08:29:42.294Z,7.40
2017-12-03T08:32:10.576Z,8.83
2017-12-03T08:34:38.871Z,6.87
2017-12-03T08:37:07.164Z,8.52
2017-12-03T08:39:35.483Z,8.43
2017-12-03T08:42:03.775Z,9.77
2017-12-03T08:44:32.094Z,9.20
2017-12-03T08:47:01.842Z,8.13
2017-12-03T08:49:30.884Z,7.72
2017-12-03T08:51:59.170Z,10.40
2017-12-03T08:54:27.472Z,10.83
2017-12-03T08:56:55.775Z,10.30
2017-12-03T08:59:24.066Z,7.10
2017-12-03T09:01:52.856Z,8.07
2017-12-03T09:04:21.148Z,6.90
2017-12-03T09:06:49.428Z,7.70
2017-12-03T09:09:17.710Z,6.90
2017-12-03T09:11:46.062Z,8.33
2017-12-03T09:14:14.356Z,7.30
2017-12-03T09:16:43.125Z,8.63
2017-12-03T09:19:11.417Z,8.65
2017-12-03T09:21:39.705Z,9.70
2017-12-03T09:24:07.997Z,8.57
2017-12-03T09:26:36.294Z,8.90
2017-12-03T09:29:04.581Z,9.50
2017-12-03T09:31:33.632Z,8.50
2017-12-03T09:34:01.914Z,7.87
2017-12-03T09:36:30.205Z,7.40
2017-12-03T09:38:58.496Z,8.43
2017-12-03T09:41:26.782Z,7.57
2017-12-03T09:43:55.084Z,8.00
2017-12-03T09:46:23.379Z,7.83
2017-12-03T09:48:51.660Z,8.30
2017-12-03T09:51:19.955Z,7.57
2017-12-03T09:53:48.251Z,7.50
2017-12-03T09:56:18.201Z,7.87
2017-12-03T09:58:46.485Z,7.30
2017-12-03T10:01:14.777Z,6.78
2017-12-03T10:03:43.077Z,7.18
2017-12-03T10:06:11.355Z,7.00
2017-12-03T10:08:39.636Z,6.40
2017-12-03T10:11:09.205Z,6.50
2017-12-03T10:13:37.477Z,6.93
2017-12-03T10:16:05.781Z,6.90
2017-12-03T10:18:34.079Z,8.30
2017-12-03T10:21:02.369Z,7.17
2017-12-03T10:23:30.656Z,6.73
2017-12-03T10:25:58.954Z,6.77
2017-12-03T10:28:27.252Z,6.57
2017-12-03T10:30:55.549Z,6.90
2017-12-03T10:33:23.866Z,7.70
2017-12-03T10:35:52.913Z,7.22
2017-12-03T10:38:21.198Z,5.90
2017-12-03T10:40:49.476Z,6.63
2017-12-03T10:43:17.809Z,7.00
2017-12-03T10:45:46.919Z,5.25
2017-12-03T10:48:15.209Z,6.70
2017-12-03T10:50:43.487Z,6.50
2017-12-03T10:53:11.772Z,7.00
2017-12-03T10:55:40.316Z,6.57
2017-12-03T10:58:08.832Z,7.37
2017-12-03T11:00:38.786Z,7.83
2017-12-03T11:03:08.442Z,7.17
2017-12-03T11:05:36.734Z,6.80
2017-12-03T11:08:05.029Z,7.68
2017-12-03T11:10:33.340Z,7.30
2017-12-03T11:13:01.628Z,8.67
2017-12-03T11:15:29.952Z,7.15
2017-12-03T11:17:58.942Z,7.37
2017-12-03T11:20:27.275Z,6.97
2017-12-03T11:22:55.552Z,7.10
2017-12-03T11:25:23.843Z,7.18
2017-12-03T11:27:53.812Z,5.77
2017-12-03T11:30:22.866Z,6.70
2017-12-03T11:32:51.145Z,5.30
2017-12-03T11:35:20.492Z,6.35
2017-12-03T11:37:50.565Z,7.10
2017-12-03T11:40:18.982Z,6.50
2017-12-03T11:42:48.945Z,6.50
2017-12-03T11:45:17.220Z,5.93
2017-12-03T11:47:45.709Z,5.90
2017-12-03T11:50:13.992Z,6.10
2017-12-03T11:52:42.360Z,6.00
2017-12-03T11:55:10.649Z,6.75
2017-12-03T11:57:38.941Z,6.70
2017-12-03T12:00:07.230Z,6.23
2017-12-03T12:02:36.277Z,6.10
2017-12-03T12:05:04.578Z,6.37
2017-12-03T12:07:32.888Z,6.18
2017-12-03T12:10:01.180Z,6.60
2017-12-03T12:12:29.450Z,5.43
2017-12-03T12:14:57.731Z,6.07
2017-12-03T12:17:26.025Z,6.55
2017-12-03T12:19:54.310Z,6.70
2017-12-03T12:22:22.594Z,6.90
2017-12-03T12:24:50.869Z,6.63
2017-12-03T12:27:19.157Z,7.23
2017-12-03T12:29:47.514Z,6.83
2017-12-03T12:32:15.809Z,7.40
2017-12-03T12:34:44.105Z,7.17
2017-12-03T12:37:12.445Z,7.90
2017-12-03T12:39:40.728Z,6.50
2017-12-03T12:42:09.022Z,7.30
2017-12-03T12:44:37.411Z,5.80
2017-12-03T12:47:05.702Z,6.60
2017-12-03T12:49:33.993Z,6.20
2017-12-03T12:52:02.325Z,7.20
2017-12-03T12:54:30.613Z,7.63
2017-12-03T12:56:58.910Z,6.60
2017-12-03T12:59:27.256Z,7.07
2017-12-03T13:01:55.622Z,6.67
2017-12-03T13:04:23.909Z,6.33
2017-12-03T13:06:52.229Z,5.97
2017-12-03T13:09:21.279Z,5.20
2017-12-03T13:11:49.565Z,5.80
2017-12-03T13:14:17.880Z,5.67
2017-12-03T13:16:47.193Z,6.20
2017-12-03T13:19:16.974Z,6.05
2017-12-03T13:21:46.024Z,6.03
2017-12-03T13:24:14.316Z,5.87
2017-12-03T13:26:43.249Z,5.40
2017-12-03T13:29:12.302Z,6.23
2017-12-03T13:31:40.586Z,5.97
2017-12-03T13:34:08.893Z,7.93
2017-12-03T13:36:37.183Z,6.10
2017-12-03T13:39:05.466Z,6.27
2017-12-03T13:41:33.760Z,6.53
2017-12-03T13:44:02.049Z,5.80
2017-12-03T13:46:30.369Z,6.97
2017-12-03T13:48:58.737Z,6.67
2017-12-03T13:51:27.057Z,6.23
2017-12-03T13:53:55.351Z,7.00
2017-12-03T13:56:23.635Z,7.17
2017-12-03T13:58:51.933Z,7.80
2017-12-03T14:01:20.252Z,6.70
2017-12-03T14:03:48.551Z,7.60
2017-12-03T14:06:16.832Z,5.93
2017-12-03T14:08:45.148Z,6.45
2017-12-03T14:11:13.641Z,6.03
2017-12-03T14:13:41.935Z,6.80
2017-12-03T14:16:10.266Z,6.28
2017-12-03T14:18:38.588Z,6.60
2017-12-03T14:21:06.885Z,5.90
2017-12-03T14:23:35.193Z,5.80
2017-12-03T14:26:03.518Z,5.70
2017-12-03T14:28:31.845Z,5.67
2017-12-03T14:31:00.153Z,6.93
2017-12-03T14:33:29.228Z,7.40
2017-12-03T14:35:57.543Z,5.80
2017-12-03T14:38:26.580Z,5.47
2017-12-03T14:40:54.860Z,5.50
2017-12-03T14:43:23.209Z,5.95
2017-12-03T14:45:51.566Z,5.53
2017-12-03T14:48:19.938Z,5.83
2017-12-03T14:50:48.244Z,5.20
2017-12-03T14:53:16.541Z,10.43
2017-12-03T14:55:44.832Z,13.23
2017-12-03T14:58:13.764Z,7.37
2017-12-03T15:00:42.058Z,8.40
2017-12-03T15:03:10.376Z,5.10
2017-12-03T15:05:38.677Z,5.47
2017-12-03T15:08:07.745Z,5.12
2017-12-03T15:10:36.048Z,4.72
2017-12-03T15:13:05.227Z,4.97
2017-12-03T15:15:33.697Z,4.85
2017-12-03T15:18:02.156Z,4.65
2017-12-03T15:20:30.489Z,4.53
2017-12-03T15:22:59.649Z,5.77
2017-12-03T15:25:27.994Z,5.05
2017-12-03T15:27:56.282Z,4.53
2017-12-03T15:30:24.593Z,5.73
2017-12-03T15:32:52.889Z,5.10
2017-12-03T15:35:21.364Z,4.57
2017-12-03T15:37:49.727Z,4.40
2017-12-03T15:40:18.243Z,4.53
2017-12-03T15:42:46.577Z,5.80
2017-12-03T15:45:16.187Z,5.30
2017-12-03T15:47:44.489Z,4.50
2017-12-03T15:50:12.861Z,5.57
2017-12-03T15:52:41.152Z,3.90
2017-12-03T15:55:09.447Z,4.40
2017-12-03T15:57:37.965Z,5.50
2017-12-03T16:00:06.297Z,7.23
2017-12-03T16:02:34.675Z,4.63
2017-12-03T16:05:03.207Z,3.20
2017-12-03T16:07:31.641Z,4.82
2017-12-03T16:10:01.347Z,5.47
2017-12-03T16:12:29.863Z,5.23
2017-12-03T16:14:58.224Z,3.57
2017-12-03T16:17:26.695Z,3.27
2017-12-03T16:19:55.379Z,3.23
2017-12-03T16:22:24.224Z,3.67
2017-12-03T16:24:53.863Z,8.60
2017-12-03T16:27:22.389Z,2.83
2017-12-03T16:29:52.134Z,2.93
2017-12-03T16:32:21.353Z,3.23
2017-12-03T16:34:50.911Z,2.90
2017-12-03T16:37:20.081Z,2.60
2017-12-03T16:39:49.778Z,2.97
2017-12-03T16:42:19.674Z,2.90
2017-12-03T16:44:49.262Z,3.50
2017-12-03T16:47:19.104Z,3.10
2017-12-03T16:49:48.965Z,2.70
2017-12-03T16:52:18.727Z,2.43
2017-12-03T16:54:48.422Z,2.70
2017-12-03T16:57:18.054Z,2.60
2017-12-03T16:59:48.530Z,2.90
2017-12-03T17:02:18.138Z,3.60
2017-12-03T17:04:47.636Z,3.20
2017-12-03T17:07:17.160Z,3.47
2017-12-03T17:09:46.930Z,2.83
2017-12-03T17:12:16.692Z,2.53
2017-12-03T17:14:46.375Z,3.27
2017-12-03T17:17:16.191Z,2.93
2017-12-03T17:19:45.975Z,3.00
2017-12-03T17:22:15.836Z,2.73
2017-12-03T17:24:45.804Z,3.10
2017-12-03T17:27:15.787Z,2.80
2017-12-03T17:29:45.556Z,2.50
2017-12-03T17:32:15.296Z,2.73
2017-12-03T17:34:45.110Z,2.87
2017-12-03T17:37:14.862Z,4.43
2017-12-03T17:39:45.391Z,3.67
2017-12-03T17:42:15.200Z,4.70
2017-12-03T17:44:45.034Z,4.03
2017-12-03T17:47:14.820Z,2.97
2017-12-03T17:49:45.173Z,3.30
2017-12-03T17:52:15.816Z,3.47
2017-12-03T17:54:46.673Z,4.20
2017-12-03T17:57:16.498Z,3.03
2017-12-03T17:59:46.356Z,3.22
2017-12-03T18:02:16.079Z,3.90
2017-12-03T18:04:45.891Z,3.57
2017-12-03T18:07:15.768Z,2.35
2017-12-03T18:09:45.554Z,2.80
2017-12-03T18:12:15.410Z,2.60
2017-12-03T18:14:45.159Z,3.30
2017-12-03T18:17:15.036Z,2.80
2017-12-03T18:19:44.947Z,2.37
2017-12-03T18:22:15.635Z,2.50
2017-12-03T18:24:45.699Z,2.63
2017-12-03T18:27:15.720Z,2.37
2017-12-03T18:29:46.002Z,3.33
2017-12-03T18:32:15.985Z,2.57
2017-12-03T18:34:46.008Z,2.40
2017-12-03T18:37:15.922Z,3.20
2017-12-03T18:39:45.978Z,5.25
2017-12-03T18:42:16.038Z,4.00
2017-12-03T18:44:46.074Z,3.63
2017-12-03T18:47:21.395Z,2.50
2017-12-03T18:49:53.462Z,2.85
2017-12-03T18:52:23.398Z,2.67
2017-12-03T18:54:54.395Z,2.97
2017-12-03T18:57:25.225Z,2.23
2017-12-03T18:59:55.320Z,2.33
2017-12-03T19:02:25.295Z,2.80
2017-12-03T19:04:55.338Z,3.00
2017-12-03T19:07:25.513Z,1.80
2017-12-03T19:09:55.422Z,2.10
2017-12-03T19:12:25.341Z,2.57
2017-12-03T19:14:55.208Z,3.20
2017-12-03T19:17:25.043Z,2.10
2017-12-03T19:19:54.876Z,2.53
2017-12-03T19:22:25.475Z,4.10
2017-12-03T19:24:57.164Z,3.20
2017-12-03T19:27:28.239Z,3.50
2017-12-03T19:29:58.056Z,3.50
2017-12-03T19:32:28.259Z,3.00
2017-12-03T19:35:00.661Z,3.10
2017-12-03T19:37:31.337Z,4.40
2017-12-03T19:40:03.355Z,4.83
2017-12-03T19:42:33.224Z,3.60
2017-12-03T19:45:03.133Z,3.73
2017-12-03T19:47:33.101Z,3.03
2017-12-03T19:50:03.789Z,3.50
2017-12-03T19:52:34.111Z,2.53
2017-12-03T19:55:04.071Z,3.20
2017-12-03T19:57:33.933Z,2.50
2017-12-03T20:00:03.911Z,2.57
2017-12-03T20:02:34.035Z,2.87
2017-12-03T20:05:04.148Z,2.37
2017-12-03T20:07:34.209Z,2.60
2017-12-03T20:10:05.775Z,2.40
2017-12-03T20:12:35.999Z,2.72
2017-12-03T20:15:05.891Z,2.23
2017-12-03T20:17:36.704Z,2.13
2017-12-03T20:20:07.515Z,1.85
2017-12-03T20:22:37.690Z,2.30
2017-12-03T20:25:07.724Z,2.03
2017-12-03T20:27:37.843Z,1.70
2017-12-03T20:30:08.026Z,2.07
2017-12-03T20:32:38.115Z,2.17
2017-12-03T20:35:08.287Z,2.20
2017-12-03T20:37:38.365Z,1.70
2017-12-03T20:40:13.635Z,2.10
2017-12-03T20:42:44.365Z,2.77
2017-12-03T20:45:14.401Z,2.13
2017-12-03T20:47:44.494Z,2.27
2017-12-03T20:50:14.539Z,1.70
2017-12-03T20:52:44.455Z,2.27
2017-12-03T20:55:15.268Z,2.53
2017-12-03T20:57:45.540Z,2.50
2017-12-03T21:00:15.552Z,1.93
2017-12-03T21:02:45.552Z,2.40
2017-12-03T21:05:15.552Z,1.90
2017-12-03T21:07:45.438Z,1.98
2017-12-03T21:10:16.142Z,2.23
2017-12-03T21:12:46.121Z,1.90
2017-12-03T21:15:16.169Z,3.20
2017-12-03T21:17:46.153Z,3.43
2017-12-03T21:20:15.962Z,3.20
2017-12-03T21:22:46.588Z,3.00
2017-12-03T21:25:16.451Z,3.27
2017-12-03T21:27:46.937Z,2.57
2017-12-03T21:30:17.765Z,1.67
2017-12-03T21:32:48.467Z,1.83
2017-12-03T21:35:18.338Z,2.33
2017-12-03T21:37:49.055Z,3.22
2017-12-03T21:40:19.546Z,1.77
2017-12-03T21:42:50.055Z,1.63
2017-12-03T21:45:19.951Z,2.03
2017-12-03T21:47:50.488Z,1.45
2017-12-03T21:50:20.020Z,1.97
2017-12-03T21:52:49.493Z,2.20
2017-12-03T21:55:18.944Z,1.80
2017-12-03T21:57:48.061Z,2.40
2017-12-03T22:00:18.186Z,2.50
2017-12-03T22:02:46.643Z,2.40
2017-12-03T22:05:14.952Z,4.40
2017-12-03T22:07:43.292Z,6.87
2017-12-03T22:10:11.593Z,7.40
2017-12-03T22:12:39.899Z,6.10
2017-12-03T22:15:08.197Z,9.18
2017-12-03T22:17:36.518Z,8.93
2017-12-03T22:20:04.816Z,9.53
2017-12-03T22:22:33.106Z,6.97
2017-12-03T22:25:01.397Z,6.30
2017-12-03T22:27:29.744Z,5.03
2017-12-03T22:29:58.036Z,4.68
2017-12-03T22:32:26.321Z,4.10
2017-12-03T22:34:54.604Z,3.47
2017-12-03T22:37:22.882Z,5.67
2017-12-03T22:39:51.179Z,3.58
2017-12-03T22:42:19.884Z,3.83
2017-12-03T22:44:48.277Z,5.10
2017-12-03T22:47:16.559Z,6.83
2017-12-03T22:49:44.832Z,5.20
2017-12-03T22:52:13.178Z,2.87
2017-12-03T22:54:41.465Z,1.90
2017-12-03T22:57:09.761Z,1.90
2017-12-03T22:59:38.045Z,1.23
2017-12-03T23:02:06.332Z,2.50
2017-12-03T23:04:34.631Z,6.17
2017-12-03T23:07:02.952Z,3.37
2017-12-03T23:09:31.252Z,3.53
2017-12-03T23:11:59.556Z,3.17
2017-12-03T23:14:27.841Z,2.80
2017-12-03T23:16:56.123Z,2.12
2017-12-03T23:19:25.159Z,1.17
2017-12-03T23:21:53.617Z,1.37
2017-12-03T23:24:27.145Z,1.30
2017-12-03T23:26:55.419Z,2.10
2017-12-03T23:29:23.704Z,2.50
2017-12-03T23:31:51.985Z,2.50
2017-12-03T23:34:20.279Z,3.77
2017-12-03T23:36:48.764Z,0.80
2017-12-03T23:39:17.085Z,0.83
2017-12-03T23:41:45.365Z,0.70
2017-12-03T23:44:13.654Z,1.17
2017-12-03T23:46:41.958Z,2.20
2017-12-03T23:49:10.243Z,2.28
2017-12-03T23:51:38.561Z,2.30
2017-12-03T23:54:06.844Z,0.80
2017-12-03T23:56:35.130Z,1.60
2017-12-03T23:59:03.413Z,1.07
